createdAt,value
2017-06-08T00:01:36.016Z,14.40
2017-06-08T00:04:03.542Z,14.30
2017-06-08T00:06:31.083Z,14.30
2017-06-08T00:08:58.587Z,14.30
2017-06-08T00:11:26.083Z,14.30
2017-06-08T00:13:53.584Z,14.20
2017-06-08T00:16:21.108Z,14.20
2017-06-08T00:18:48.644Z,14.10
2017-06-08T00:21:16.175Z,14.10
2017-06-08T00:23:43.715Z,14.10
2017-06-08T00:26:11.995Z,14.10
2017-06-08T00:28:40.307Z,14.10
2017-06-08T00:31:07.812Z,14.10
2017-06-08T00:33:35.321Z,14.10
2017-06-08T00:36:03.364Z,14.00
2017-06-08T00:38:30.886Z,14.00
2017-06-08T00:40:58.702Z,14.10
2017-06-08T00:43:26.187Z,13.90
2017-06-08T00:45:53.693Z,13.90
2017-06-08T00:48:21.208Z,14.00
2017-06-08T00:50:48.717Z,14.10
2017-06-08T00:53:16.240Z,14.10
2017-06-08T00:55:43.736Z,14.00
2017-06-08T00:58:12.012Z,14.10
2017-06-08T01:00:40.275Z,14.20
2017-06-08T01:03:07.794Z,14.10
2017-06-08T01:05:35.329Z,14.20
2017-06-08T01:08:02.839Z,14.20
2017-06-08T01:10:30.331Z,14.10
2017-06-08T01:12:58.603Z,14.10
2017-06-08T01:15:26.895Z,14.20
2017-06-08T01:17:54.414Z,14.20
2017-06-08T01:20:21.924Z,14.20
2017-06-08T01:22:49.433Z,14.20
2017-06-08T01:25:16.951Z,14.10
2017-06-08T01:27:44.470Z,14.10
2017-06-08T01:30:11.987Z,14.10
2017-06-08T01:32:39.514Z,14.10
2017-06-08T01:35:07.038Z,14.10
2017-06-08T01:37:34.535Z,14.10
2017-06-08T01:40:02.103Z,14.10
2017-06-08T01:42:29.619Z,14.10
2017-06-08T01:44:57.110Z,14.10
2017-06-08T01:47:24.617Z,14.10
2017-06-08T01:49:52.105Z,14.20
2017-06-08T01:52:20.488Z,14.20
2017-06-08T01:54:47.992Z,14.10
2017-06-08T01:57:15.495Z,14.10
2017-06-08T01:59:42.994Z,14.20
2017-06-08T02:02:10.492Z,14.10
2017-06-08T02:04:37.990Z,14.10
2017-06-08T02:07:05.569Z,14.20
2017-06-08T02:09:33.075Z,14.10
2017-06-08T02:12:00.575Z,14.10
2017-06-08T02:14:28.103Z,14.00
2017-06-08T02:16:55.593Z,14.00
2017-06-08T02:19:23.116Z,13.90
2017-06-08T02:21:50.645Z,13.90
2017-06-08T02:24:18.185Z,13.80
2017-06-08T02:26:45.673Z,13.90
2017-06-08T02:29:13.162Z,13.80
2017-06-08T02:31:40.792Z,13.80
2017-06-08T02:34:08.304Z,13.70
2017-06-08T02:36:35.867Z,13.70
2017-06-08T02:39:03.520Z,13.80
2017-06-08T02:41:31.795Z,13.80
2017-06-08T02:44:00.059Z,13.90
2017-06-08T02:46:27.573Z,13.90
2017-06-08T02:48:55.064Z,13.90
2017-06-08T02:51:22.558Z,13.80
2017-06-08T02:53:50.230Z,13.80
2017-06-08T02:56:17.723Z,13.90
2017-06-08T02:58:45.237Z,13.90
2017-06-08T03:01:12.752Z,14.00
2017-06-08T03:03:40.254Z,14.00
2017-06-08T03:06:07.776Z,14.10
2017-06-08T03:08:35.276Z,14.00
2017-06-08T03:11:02.775Z,14.10
2017-06-08T03:13:30.413Z,14.10
2017-06-08T03:15:57.918Z,14.00
2017-06-08T03:18:25.410Z,14.00
2017-06-08T03:20:52.916Z,14.00
2017-06-08T03:23:20.436Z,14.10
2017-06-08T03:25:47.941Z,14.10
2017-06-08T03:28:15.432Z,14.10
2017-06-08T03:30:42.940Z,14.00
2017-06-08T03:33:10.451Z,14.00
2017-06-08T03:35:38.718Z,14.00
2017-06-08T03:38:06.208Z,14.00
2017-06-08T03:40:33.723Z,14.10
2017-06-08T03:43:01.223Z,14.10
2017-06-08T03:45:28.732Z,14.10
2017-06-08T03:47:56.241Z,14.10
2017-06-08T03:50:23.741Z,14.10
2017-06-08T03:52:51.279Z,14.10
2017-06-08T03:55:18.819Z,14.10
2017-06-08T03:57:46.334Z,14.20
2017-06-08T04:00:13.842Z,14.20
2017-06-08T04:02:41.378Z,14.20
2017-06-08T04:05:09.646Z,14.20
2017-06-08T04:07:37.169Z,14.20
2017-06-08T04:10:04.666Z,14.30
2017-06-08T04:12:32.175Z,14.30
2017-06-08T04:14:59.670Z,14.40
2017-06-08T04:17:27.192Z,14.50
2017-06-08T04:19:54.702Z,14.60
2017-06-08T04:22:22.233Z,14.70
2017-06-08T04:24:49.795Z,14.70
2017-06-08T04:27:17.326Z,14.80
2017-06-08T04:29:44.869Z,14.80
2017-06-08T04:32:12.390Z,14.80
2017-06-08T04:34:39.904Z,14.70
2017-06-08T04:37:07.403Z,14.70
2017-06-08T04:39:34.917Z,14.70
2017-06-08T04:42:02.423Z,14.70
2017-06-08T04:44:29.924Z,14.70
2017-06-08T04:46:57.460Z,14.70
2017-06-08T04:49:25.839Z,14.80
2017-06-08T04:51:53.582Z,14.80
2017-06-08T04:54:21.097Z,14.90
2017-06-08T04:56:48.614Z,15.00
2017-06-08T04:59:16.148Z,15.10
2017-06-08T05:01:43.646Z,15.10
2017-06-08T05:04:11.925Z,15.10
2017-06-08T05:06:40.216Z,15.10
2017-06-08T05:09:07.723Z,15.10
2017-06-08T05:11:35.230Z,15.20
2017-06-08T05:14:02.758Z,15.20
2017-06-08T05:16:30.277Z,15.10
2017-06-08T05:18:57.903Z,15.20
2017-06-08T05:21:26.170Z,15.10
2017-06-08T05:23:54.469Z,15.10
2017-06-08T05:26:21.979Z,15.10
2017-06-08T05:28:49.472Z,15.10
2017-06-08T05:31:17.006Z,15.10
2017-06-08T05:33:44.518Z,15.10
2017-06-08T05:36:12.011Z,15.20
2017-06-08T05:38:39.541Z,15.20
2017-06-08T05:41:07.054Z,15.30
2017-06-08T05:43:34.552Z,15.30
2017-06-08T05:46:02.081Z,15.30
2017-06-08T05:48:29.603Z,15.40
2017-06-08T05:50:57.161Z,15.50
2017-06-08T05:53:24.655Z,15.60
2017-06-08T05:55:52.206Z,15.70
2017-06-08T05:58:19.720Z,15.80
2017-06-08T06:00:47.230Z,15.80
2017-06-08T06:03:14.731Z,15.70
2017-06-08T06:05:42.237Z,15.80
2017-06-08T06:08:09.752Z,15.80
2017-06-08T06:10:37.278Z,15.90
2017-06-08T06:13:04.808Z,15.90
2017-06-08T06:15:32.305Z,16.00
2017-06-08T06:17:59.835Z,16.10
2017-06-08T06:20:27.331Z,16.10
2017-06-08T06:22:54.831Z,16.20
2017-06-08T06:25:22.344Z,16.20
2017-06-08T06:27:49.864Z,16.20
2017-06-08T06:30:17.373Z,16.30
2017-06-08T06:32:44.887Z,16.40
2017-06-08T06:35:12.409Z,16.40
2017-06-08T06:37:39.915Z,16.30
2017-06-08T06:40:07.417Z,16.40
2017-06-08T06:42:34.930Z,16.50
2017-06-08T06:45:02.541Z,16.50
2017-06-08T06:47:30.035Z,16.60
2017-06-08T06:49:57.575Z,16.60
2017-06-08T06:52:25.092Z,16.60
2017-06-08T06:54:52.610Z,16.50
2017-06-08T06:57:20.150Z,16.50
2017-06-08T06:59:47.857Z,16.40
2017-06-08T07:02:15.433Z,16.40
2017-06-08T07:04:43.001Z,16.50
2017-06-08T07:07:10.816Z,16.60
2017-06-08T07:09:38.362Z,16.60
2017-06-08T07:12:05.886Z,16.60
2017-06-08T07:14:33.864Z,16.70
2017-06-08T07:17:01.409Z,16.70
2017-06-08T07:19:28.975Z,16.80
2017-06-08T07:21:56.514Z,16.90
2017-06-08T07:24:24.905Z,17.10
2017-06-08T07:26:52.421Z,17.10
2017-06-08T07:29:19.970Z,17.20
2017-06-08T07:31:47.484Z,17.30
2017-06-08T07:34:15.017Z,17.40
2017-06-08T07:36:42.519Z,17.30
2017-06-08T07:39:10.075Z,17.10
2017-06-08T07:41:37.580Z,17.00
2017-06-08T07:44:05.077Z,17.00
2017-06-08T07:46:33.361Z,17.30
2017-06-08T07:49:00.888Z,17.30
2017-06-08T07:51:28.408Z,17.50
2017-06-08T07:53:55.935Z,17.60
2017-06-08T07:56:24.244Z,17.70
2017-06-08T07:58:51.776Z,17.70
2017-06-08T08:01:31.128Z,17.80
2017-06-08T08:03:58.691Z,18.00
2017-06-08T08:06:26.189Z,18.10
2017-06-08T08:08:53.721Z,18.20
2017-06-08T08:11:21.246Z,18.20
2017-06-08T08:13:49.630Z,18.30
2017-06-08T08:16:17.141Z,18.30
2017-06-08T08:18:44.665Z,18.40
2017-06-08T08:21:12.159Z,18.40
2017-06-08T08:23:39.771Z,18.40
2017-06-08T08:26:07.303Z,18.40
2017-06-08T08:28:34.868Z,18.40
2017-06-08T08:31:02.365Z,18.40
2017-06-08T08:33:29.914Z,18.40
2017-06-08T08:35:57.477Z,18.50
2017-06-08T08:38:24.975Z,18.60
2017-06-08T08:40:52.518Z,18.50
2017-06-08T08:43:20.318Z,18.60
2017-06-08T08:45:47.933Z,18.60
2017-06-08T08:48:15.467Z,18.60
2017-06-08T08:50:43.034Z,18.50
2017-06-08T08:53:10.538Z,18.60
2017-06-08T08:55:38.070Z,18.70
2017-06-08T08:58:05.598Z,18.60
2017-06-08T09:00:33.881Z,18.80
2017-06-08T09:03:02.164Z,18.80
2017-06-08T09:05:29.695Z,18.80
2017-06-08T09:07:57.206Z,18.80
2017-06-08T09:10:24.708Z,19.10
2017-06-08T09:12:52.220Z,19.30
2017-06-08T09:15:19.756Z,19.50
2017-06-08T09:17:47.297Z,19.60
2017-06-08T09:20:14.797Z,19.70
2017-06-08T09:22:42.300Z,20.00
2017-06-08T09:25:09.816Z,20.10
2017-06-08T09:27:37.330Z,20.20
2017-06-08T09:30:04.836Z,20.20
2017-06-08T09:32:32.445Z,20.20
2017-06-08T09:34:59.984Z,20.20
2017-06-08T09:37:27.588Z,20.30
2017-06-08T09:39:55.890Z,20.50
2017-06-08T09:42:23.382Z,20.50
2017-06-08T09:44:50.938Z,20.50
2017-06-08T09:47:18.486Z,20.20
2017-06-08T09:49:45.987Z,20.10
2017-06-08T09:52:13.515Z,20.20
2017-06-08T09:54:41.029Z,20.30
2017-06-08T09:57:08.544Z,20.20
2017-06-08T09:59:36.061Z,19.90
2017-06-08T10:02:03.572Z,19.60
2017-06-08T10:04:31.121Z,19.40
2017-06-08T10:06:58.622Z,19.30
2017-06-08T10:09:26.144Z,19.20
2017-06-08T10:11:53.636Z,19.00
2017-06-08T10:14:21.182Z,18.80
2017-06-08T10:16:48.728Z,18.70
2017-06-08T10:19:16.250Z,18.70
2017-06-08T10:21:43.787Z,18.70
2017-06-08T10:24:11.332Z,18.80
2017-06-08T10:26:39.610Z,18.90
2017-06-08T10:29:07.880Z,18.90
2017-06-08T10:31:36.152Z,18.90
2017-06-08T10:34:04.471Z,19.00
2017-06-08T10:36:31.983Z,19.00
2017-06-08T10:38:59.495Z,19.00
2017-06-08T10:41:27.007Z,18.90
2017-06-08T10:43:55.289Z,18.90
2017-06-08T10:46:23.576Z,19.00
2017-06-08T10:48:52.650Z,18.90
2017-06-08T10:51:20.175Z,18.90
2017-06-08T10:53:47.687Z,18.90
2017-06-08T10:56:15.200Z,19.10
2017-06-08T10:58:42.710Z,19.00
2017-06-08T11:01:10.269Z,18.80
2017-06-08T11:03:37.775Z,18.90
2017-06-08T11:06:05.332Z,19.00
2017-06-08T11:08:32.863Z,19.10
2017-06-08T11:11:00.420Z,19.20
2017-06-08T11:13:27.957Z,19.40
2017-06-08T11:15:55.478Z,19.50
2017-06-08T11:18:22.998Z,19.40
2017-06-08T11:20:50.527Z,19.30
2017-06-08T11:23:18.049Z,19.40
2017-06-08T11:25:45.546Z,19.30
2017-06-08T11:28:13.808Z,19.40
2017-06-08T11:30:41.430Z,19.30
2017-06-08T11:33:09.075Z,19.30
2017-06-08T11:35:36.584Z,19.10
2017-06-08T11:38:04.096Z,18.90
2017-06-08T11:40:31.602Z,18.80
2017-06-08T11:42:59.144Z,18.70
2017-06-08T11:45:26.661Z,18.70
2017-06-08T11:47:54.187Z,18.70
2017-06-08T11:50:21.711Z,18.90
2017-06-08T11:52:49.241Z,19.00
2017-06-08T11:55:17.100Z,19.00
2017-06-08T11:57:46.422Z,19.00
2017-06-08T12:00:14.001Z,19.00
2017-06-08T12:02:41.540Z,18.90
2017-06-08T12:05:09.039Z,18.90
2017-06-08T12:07:36.543Z,18.80
2017-06-08T12:10:04.074Z,18.80
2017-06-08T12:12:31.575Z,18.70
2017-06-08T12:14:59.128Z,18.60
2017-06-08T12:17:26.692Z,18.60
2017-06-08T12:19:54.252Z,18.50
2017-06-08T12:22:21.759Z,18.50
2017-06-08T12:24:49.285Z,18.50
2017-06-08T12:27:16.786Z,18.40
2017-06-08T12:29:45.302Z,18.40
2017-06-08T12:32:12.994Z,18.40
2017-06-08T12:34:40.487Z,18.40
2017-06-08T12:37:07.996Z,18.40
2017-06-08T12:39:35.525Z,18.30
2017-06-08T12:42:03.047Z,18.30
2017-06-08T12:44:30.562Z,18.40
2017-06-08T12:46:58.846Z,18.60
2017-06-08T12:49:26.371Z,18.50
2017-06-08T12:51:53.871Z,18.70
2017-06-08T12:54:21.399Z,18.70
2017-06-08T12:56:48.912Z,18.70
2017-06-08T12:59:16.415Z,18.60
2017-06-08T13:01:43.913Z,18.40
2017-06-08T13:04:11.459Z,18.40
2017-06-08T13:06:38.950Z,18.40
2017-06-08T13:09:06.455Z,18.30
2017-06-08T13:11:33.957Z,18.40
2017-06-08T13:14:01.481Z,18.40
2017-06-08T13:16:29.762Z,18.60
2017-06-08T13:18:57.298Z,18.60
2017-06-08T13:21:24.779Z,18.90
2017-06-08T13:23:52.419Z,18.90
2017-06-08T13:26:19.944Z,19.10
2017-06-08T13:28:47.477Z,19.20
2017-06-08T13:31:14.967Z,19.50
2017-06-08T13:33:42.470Z,19.80
2017-06-08T13:36:10.028Z,20.20
2017-06-08T13:38:38.312Z,21.10
2017-06-08T13:41:05.818Z,21.10
2017-06-08T13:43:33.316Z,21.30
2017-06-08T13:46:00.998Z,21.30
2017-06-08T13:48:28.501Z,21.00
2017-06-08T13:50:56.027Z,20.60
2017-06-08T13:53:23.538Z,20.40
2017-06-08T13:55:51.023Z,20.50
2017-06-08T13:58:18.530Z,20.20
2017-06-08T14:00:46.072Z,20.00
2017-06-08T14:03:13.567Z,19.90
2017-06-08T14:05:41.077Z,19.90
2017-06-08T14:08:08.625Z,19.90
2017-06-08T14:10:36.899Z,20.00
2017-06-08T14:13:05.177Z,20.10
2017-06-08T14:15:33.438Z,20.50
2017-06-08T14:18:01.020Z,20.40
2017-06-08T14:20:28.549Z,20.70
2017-06-08T14:22:56.061Z,20.90
2017-06-08T14:25:23.567Z,21.00
2017-06-08T14:27:51.079Z,21.20
2017-06-08T14:30:18.605Z,21.40
2017-06-08T14:32:47.844Z,22.00
2017-06-08T14:35:15.430Z,21.90
2017-06-08T14:37:42.964Z,22.20
2017-06-08T14:40:10.585Z,22.20
2017-06-08T14:42:38.141Z,22.40
2017-06-08T14:45:06.425Z,22.50
2017-06-08T14:47:34.810Z,22.50
2017-06-08T14:50:02.721Z,22.40
2017-06-08T14:52:30.277Z,22.50
2017-06-08T14:54:57.895Z,22.50
2017-06-08T14:57:26.197Z,22.20
2017-06-08T14:59:53.744Z,22.10
2017-06-08T15:02:21.313Z,22.10
2017-06-08T15:04:48.839Z,21.90
2017-06-08T15:07:16.360Z,21.60
2017-06-08T15:09:43.861Z,21.40
2017-06-08T15:12:11.371Z,21.40
2017-06-08T15:14:38.953Z,21.60
2017-06-08T15:17:06.476Z,21.40
2017-06-08T15:19:34.026Z,21.30
2017-06-08T15:22:01.696Z,21.30
2017-06-08T15:24:29.257Z,21.40
2017-06-08T15:26:56.925Z,21.40
2017-06-08T15:29:24.456Z,21.90
2017-06-08T15:31:51.982Z,22.80
2017-06-08T15:34:19.597Z,23.30
2017-06-08T15:36:47.175Z,23.30
2017-06-08T15:39:14.717Z,23.30
2017-06-08T15:41:42.238Z,23.60
2017-06-08T15:44:09.775Z,24.10
2017-06-08T15:46:37.330Z,23.90
2017-06-08T15:49:04.898Z,24.10
2017-06-08T15:51:32.440Z,24.50
2017-06-08T15:53:59.956Z,24.70
2017-06-08T15:56:28.243Z,24.70
2017-06-08T15:58:56.520Z,24.30
2017-06-08T16:01:24.811Z,23.90
2017-06-08T16:03:52.328Z,23.90
2017-06-08T16:06:19.840Z,23.70
2017-06-08T16:08:47.355Z,23.50
2017-06-08T16:11:15.749Z,23.40
2017-06-08T16:13:43.255Z,23.40
2017-06-08T16:16:10.799Z,23.30
2017-06-08T16:18:38.308Z,23.60
2017-06-08T16:21:05.868Z,24.40
2017-06-08T16:23:33.419Z,25.30
2017-06-08T16:26:00.945Z,25.80
2017-06-08T16:28:28.454Z,25.80
2017-06-08T16:30:56.735Z,24.90
2017-06-08T16:33:25.034Z,24.40
2017-06-08T16:35:52.592Z,24.40
2017-06-08T16:38:20.306Z,24.00
2017-06-08T16:40:47.817Z,23.60
2017-06-08T16:43:15.311Z,23.20
2017-06-08T16:45:42.842Z,22.80
2017-06-08T16:48:10.390Z,22.60
2017-06-08T16:50:37.912Z,22.50
2017-06-08T16:53:05.428Z,22.40
2017-06-08T16:55:32.920Z,22.30
2017-06-08T16:58:00.427Z,22.40
2017-06-08T17:00:27.967Z,22.50
2017-06-08T17:02:55.491Z,23.20
2017-06-08T17:05:23.032Z,24.20
2017-06-08T17:07:50.638Z,25.60
2017-06-08T17:10:18.153Z,26.30
2017-06-08T17:12:45.661Z,26.30
2017-06-08T17:15:13.325Z,26.00
2017-06-08T17:17:40.840Z,25.50
2017-06-08T17:20:08.354Z,25.20
2017-06-08T17:22:36.630Z,24.20
2017-06-08T17:25:05.043Z,24.00
2017-06-08T17:27:32.580Z,24.00
2017-06-08T17:30:00.090Z,23.80
2017-06-08T17:32:27.807Z,23.40
2017-06-08T17:34:55.328Z,23.20
2017-06-08T17:37:22.850Z,23.00
2017-06-08T17:39:50.474Z,22.90
2017-06-08T17:42:18.808Z,22.70
2017-06-08T17:44:46.325Z,22.70
2017-06-08T17:47:13.878Z,22.60
2017-06-08T17:49:41.400Z,22.50
2017-06-08T17:52:08.943Z,22.50
2017-06-08T17:54:36.446Z,22.40
2017-06-08T17:57:04.068Z,22.40
2017-06-08T17:59:31.626Z,22.30
2017-06-08T18:01:59.131Z,22.20
2017-06-08T18:04:26.660Z,22.00
2017-06-08T18:06:54.159Z,22.00
2017-06-08T18:09:21.686Z,21.90
2017-06-08T18:11:49.248Z,21.90
2017-06-08T18:14:17.534Z,22.00
2017-06-08T18:16:45.819Z,21.90
2017-06-08T18:19:14.226Z,21.90
2017-06-08T18:21:41.719Z,21.90
2017-06-08T18:24:09.219Z,21.90
2017-06-08T18:26:37.540Z,21.80
2017-06-08T18:29:05.120Z,21.80
2017-06-08T18:31:32.669Z,21.70
2017-06-08T18:34:00.277Z,21.70
2017-06-08T18:36:28.697Z,21.60
2017-06-08T18:38:56.272Z,21.60
2017-06-08T18:41:23.875Z,21.50
2017-06-08T18:43:52.188Z,21.50
2017-06-08T18:46:19.749Z,21.50
2017-06-08T18:48:47.259Z,21.50
2017-06-08T18:51:14.804Z,21.60
2017-06-08T18:53:42.312Z,21.50
2017-06-08T18:56:09.836Z,21.50
2017-06-08T18:58:37.367Z,21.50
2017-06-08T19:01:04.939Z,21.50
2017-06-08T19:03:32.476Z,21.50
2017-06-08T19:05:59.997Z,21.40
2017-06-08T19:08:27.502Z,21.30
2017-06-08T19:10:55.002Z,21.20
2017-06-08T19:13:23.308Z,21.20
2017-06-08T19:15:50.856Z,21.20
2017-06-08T19:18:18.388Z,21.20
2017-06-08T19:20:45.911Z,21.20
2017-06-08T19:23:13.438Z,21.20
2017-06-08T19:25:41.128Z,21.20
2017-06-08T19:28:08.694Z,21.10
2017-06-08T19:30:36.256Z,21.10
2017-06-08T19:33:03.880Z,21.10
2017-06-08T19:35:31.399Z,21.10
2017-06-08T19:37:58.978Z,21.10
2017-06-08T19:40:26.532Z,21.10
2017-06-08T19:42:54.130Z,21.00
2017-06-08T19:45:21.668Z,21.00
2017-06-08T19:47:49.955Z,20.90
2017-06-08T19:50:18.275Z,20.80
2017-06-08T19:52:45.809Z,20.80
2017-06-08T19:55:13.394Z,20.70
2017-06-08T19:57:40.928Z,20.70
2017-06-08T20:00:08.471Z,20.60
2017-06-08T20:02:36.743Z,20.70
2017-06-08T20:05:05.023Z,20.70
2017-06-08T20:07:33.333Z,20.70
2017-06-08T20:10:00.863Z,20.70
2017-06-08T20:12:28.444Z,20.70
2017-06-08T20:14:55.978Z,20.70
2017-06-08T20:17:23.472Z,20.70
2017-06-08T20:19:50.990Z,20.60
2017-06-08T20:22:19.278Z,20.60
2017-06-08T20:24:47.547Z,20.60
2017-06-08T20:27:15.872Z,20.70
2017-06-08T20:29:43.397Z,20.70
2017-06-08T20:32:10.927Z,20.70
2017-06-08T20:34:38.451Z,20.60
2017-06-08T20:37:06.239Z,20.60
2017-06-08T20:39:33.783Z,20.60
2017-06-08T20:42:01.280Z,20.50
2017-06-08T20:44:28.856Z,20.50
2017-06-08T20:46:57.144Z,20.50
2017-06-08T20:49:24.664Z,20.50
2017-06-08T20:51:52.164Z,20.50
2017-06-08T20:54:19.680Z,20.50
2017-06-08T20:56:47.207Z,20.40
2017-06-08T20:59:14.728Z,20.40
2017-06-08T21:01:42.280Z,20.30
2017-06-08T21:04:10.555Z,20.20
2017-06-08T21:06:38.855Z,20.10
2017-06-08T21:09:06.351Z,20.10
2017-06-08T21:11:33.859Z,20.20
2017-06-08T21:14:01.399Z,20.10
2017-06-08T21:16:28.904Z,20.10
2017-06-08T21:18:56.412Z,20.00
2017-06-08T21:21:23.940Z,20.00
2017-06-08T21:23:51.469Z,19.90
2017-06-08T21:26:18.987Z,19.90
2017-06-08T21:28:46.501Z,19.90
2017-06-08T21:31:14.114Z,19.90
2017-06-08T21:33:41.623Z,19.90
2017-06-08T21:36:09.128Z,19.80
2017-06-08T21:38:36.655Z,19.70
2017-06-08T21:41:04.175Z,19.80
2017-06-08T21:43:31.718Z,19.90
2017-06-08T21:45:59.292Z,19.80
2017-06-08T21:48:26.811Z,19.80
2017-06-08T21:50:55.316Z,19.80
2017-06-08T21:53:23.607Z,19.80
2017-06-08T21:55:51.891Z,19.90
2017-06-08T21:58:20.151Z,19.90
2017-06-08T22:00:48.434Z,19.80
2017-06-08T22:03:16.720Z,19.80
2017-06-08T22:05:45.000Z,19.80
2017-06-08T22:08:13.290Z,19.80
2017-06-08T22:10:40.827Z,19.80
2017-06-08T22:13:08.332Z,19.70
2017-06-08T22:15:35.855Z,19.80
2017-06-08T22:18:04.178Z,19.70
2017-06-08T22:20:31.778Z,19.70
2017-06-08T22:23:00.104Z,19.70
2017-06-08T22:25:27.630Z,19.70
2017-06-08T22:27:55.177Z,19.80
2017-06-08T22:30:23.460Z,19.70
2017-06-08T22:32:51.802Z,19.70
2017-06-08T22:35:19.307Z,19.70
2017-06-08T22:37:46.804Z,19.60
2017-06-08T22:40:14.392Z,19.60
2017-06-08T22:42:41.918Z,19.40
2017-06-08T22:45:09.415Z,19.30
2017-06-08T22:47:36.983Z,19.30
2017-06-08T22:50:04.479Z,19.30
2017-06-08T22:52:32.031Z,19.20
2017-06-08T22:54:59.543Z,19.20
2017-06-08T22:57:27.080Z,19.20
2017-06-08T22:59:54.571Z,19.10
2017-06-08T23:02:22.577Z,19.00
2017-06-08T23:04:50.080Z,19.00
2017-06-08T23:07:17.646Z,19.00
2017-06-08T23:09:45.176Z,18.90
2017-06-08T23:12:12.679Z,18.90
2017-06-08T23:14:40.179Z,18.90
2017-06-08T23:17:07.711Z,18.90
2017-06-08T23:19:35.262Z,18.80
2017-06-08T23:22:02.794Z,18.70
2017-06-08T23:24:30.288Z,18.70
2017-06-08T23:26:57.797Z,18.70
2017-06-08T23:29:25.274Z,18.60
2017-06-08T23:31:52.792Z,18.60
2017-06-08T23:34:20.314Z,18.60
2017-06-08T23:36:47.811Z,18.60
2017-06-08T23:39:15.321Z,18.50
2017-06-08T23:41:42.820Z,18.50
2017-06-08T23:44:11.082Z,18.50
2017-06-08T23:46:39.358Z,18.40
2017-06-08T23:49:06.910Z,18.40
2017-06-08T23:51:34.406Z,18.40
2017-06-08T23:54:01.920Z,18.40
2017-06-08T23:56:29.609Z,18.40
2017-06-08T23:58:58.063Z,18.30
